Time;durP1;ratioP1;P1;durP2;ratioP2;P2;SDS_P1;SDS_P2;PMS_P1;PMS_P2;Temp;Humidity;BMP_temperature;BMP_pressure;BME280_temperature;BME280_humidity;BME280_pressure;Samples;Min_cycle;Max_cycle;Signal;HPM_P1;HPM_P2
2022/09/06 00:01:08;;;;;;;0.88;0.88;;;20.80;99.90;;;;;;5070854;28;20282;-68
2022/09/06 00:03:35;;;;;;;0.90;0.90;;;20.80;99.90;;;;;;5069216;28;20211;-66
2022/09/06 00:06:07;;;;;;;1.20;1.10;;;20.90;99.90;;;;;;5058083;28;20213;-67
2022/09/06 00:08:35;;;;;;;1.05;1.05;;;20.90;99.90;;;;;;5058353;28;20245;-66
2022/09/06 00:11:02;;;;;;;1.10;1.10;;;20.80;99.90;;;;;;5060650;28;20279;-66
2022/09/06 00:13:29;;;;;;;1.00;1.00;;;20.80;99.90;;;;;;5062422;28;20718;-67
2022/09/06 00:15:56;;;;;;;0.90;0.90;;;20.80;99.90;;;;;;5057587;28;20302;-66
2022/09/06 00:18:23;;;;;;;0.93;0.93;;;20.80;99.90;;;;;;5063657;28;20327;-68
2022/09/06 00:20:50;;;;;;;0.98;0.98;;;20.80;99.90;;;;;;5064125;28;20234;-67
2022/09/06 00:23:17;;;;;;;0.93;0.93;;;20.80;99.90;;;;;;5066448;28;20222;-67
2022/09/06 00:25:45;;;;;;;0.90;0.90;;;20.80;99.90;;;;;;5063690;28;20290;-67
2022/09/06 00:28:12;;;;;;;1.00;1.00;;;20.80;99.90;;;;;;5064817;28;20200;-66
2022/09/06 00:30:39;;;;;;;0.80;0.80;;;20.80;99.90;;;;;;5064384;28;20223;-68
2022/09/06 00:33:06;;;;;;;1.23;1.15;;;20.80;99.90;;;;;;5063163;28;20840;-67
2022/09/06 00:35:33;;;;;;;0.80;0.80;;;20.80;99.90;;;;;;5067330;28;20635;-67
2022/09/06 00:38:01;;;;;;;1.00;1.00;;;20.90;99.90;;;;;;5065642;28;20633;-66
2022/09/06 00:40:32;;;;;;;1.05;1.05;;;20.90;99.90;;;;;;5065194;28;20850;-68
2022/09/06 00:43:00;;;;;;;1.00;1.00;;;20.90;99.90;;;;;;5063289;28;20716;-67
2022/09/06 00:45:28;;;;;;;1.30;1.20;;;20.90;99.90;;;;;;5082621;28;20347;-67
2022/09/06 00:47:55;;;;;;;0.90;0.90;;;20.80;99.90;;;;;;5106159;28;20199;-70
2022/09/06 00:50:22;;;;;;;1.00;1.00;;;20.90;99.90;;;;;;5093283;28;20223;-68
2022/09/06 00:52:51;;;;;;;1.07;1.07;;;20.80;99.90;;;;;;5077678;28;20205;-67
2022/09/06 00:55:19;;;;;;;0.90;0.90;;;20.80;99.90;;;;;;5089227;28;20241;-66
2022/09/06 00:57:49;;;;;;;0.80;0.80;;;20.90;99.90;;;;;;5069787;28;20234;-66
2022/09/06 01:00:19;;;;;;;1.63;0.90;;;20.80;99.90;;;;;;5098390;28;20249;-67
2022/09/06 01:02:47;;;;;;;1.05;1.05;;;20.80;99.90;;;;;;5073503;28;20242;-67
2022/09/06 01:05:14;;;;;;;1.00;1.00;;;20.70;99.90;;;;;;5084013;28;20313;-67
2022/09/06 01:07:55;;;;;;;1.10;1.00;;;20.60;99.90;;;;;;5068853;28;20227;-68
2022/09/06 01:10:41;;;;;;;0.98;0.98;;;20.70;99.90;;;;;;5085784;28;20314;-66
2022/09/06 01:13:20;;;;;;;0.95;0.95;;;20.70;99.90;;;;;;5068982;28;20282;-68
2022/09/06 01:15:54;;;;;;;1.00;1.00;;;20.70;99.90;;;;;;5072751;28;20230;-67
2022/09/06 01:18:35;;;;;;;0.85;0.85;;;20.80;99.90;;;;;;5073174;28;20316;-67
2022/09/06 01:21:14;;;;;;;1.00;1.00;;;21.00;99.90;;;;;;5083841;28;20668;-68
2022/09/06 01:24:13;;;;;;;1.10;1.10;;;21.10;99.90;;;;;;5066394;28;20202;-68
2022/09/06 01:27:22;;;;;;;1.05;1.05;;;21.20;99.90;;;;;;5072438;28;20700;-66
2022/09/06 01:29:52;;;;;;;1.20;1.20;;;21.30;99.90;;;;;;5070798;28;20307;-68
2022/09/06 01:32:27;;;;;;;1.13;1.02;;;21.30;99.90;;;;;;5084592;28;20289;-66
2022/09/06 01:35:01;;;;;;;1.00;1.00;;;21.30;99.90;;;;;;5069485;28;20621;-68
2022/09/06 01:37:28;;;;;;;1.20;1.10;;;21.30;99.90;;;;;;5081945;28;20196;-68
2022/09/06 01:39:55;;;;;;;1.02;1.02;;;21.40;99.90;;;;;;5086234;28;20545;-66
2022/09/06 01:42:26;;;;;;;1.20;1.20;;;21.50;99.90;;;;;;5083596;28;20231;-67
2022/09/06 01:44:58;;;;;;;1.00;1.00;;;21.60;99.90;;;;;;5085273;28;20218;-67
2022/09/06 01:47:37;;;;;;;0.93;0.93;;;21.60;99.90;;;;;;5083273;28;20850;-66
2022/09/06 01:50:38;;;;;;;1.17;1.17;;;21.70;99.90;;;;;;5084633;28;20764;-67
2022/09/06 01:53:17;;;;;;;1.00;1.00;;;21.60;99.90;;;;;;5053340;28;20212;-68
2022/09/06 01:55:50;;;;;;;1.13;1.13;;;21.60;99.90;;;;;;5079156;28;20202;-67
2022/09/06 01:58:44;;;;;;;1.27;1.27;;;21.60;99.90;;;;;;5087946;28;20293;-67
2022/09/06 02:01:21;;;;;;;1.20;1.10;;;21.60;99.90;;;;;;5077733;28;20298;-67
2022/09/06 02:03:53;;;;;;;1.23;1.10;;;21.50;99.90;;;;;;5074802;28;20282;-67
2022/09/06 02:06:24;;;;;;;1.33;1.20;;;21.50;99.90;;;;;;5076378;28;20203;-67
2022/09/06 02:08:55;;;;;;;1.00;1.00;;;21.50;99.90;;;;;;5070206;28;20333;-66
2022/09/06 02:11:24;;;;;;;1.00;1.00;;;21.50;99.90;;;;;;5066835;28;20670;-67
2022/09/06 02:13:57;;;;;;;1.20;1.10;;;21.50;99.90;;;;;;5077446;28;20294;-66
2022/09/06 02:16:27;;;;;;;1.00;1.00;;;21.50;99.90;;;;;;5072728;28;20195;-68
2022/09/06 02:19:00;;;;;;;1.10;1.10;;;21.50;99.90;;;;;;5079676;28;20673;-66
2022/09/06 02:21:31;;;;;;;1.13;1.05;;;21.40;99.90;;;;;;5071795;28;20226;-67
2022/09/06 02:24:02;;;;;;;1.07;1.07;;;21.30;99.90;;;;;;5080994;28;20216;-67
2022/09/06 02:26:32;;;;;;;1.20;1.10;;;21.40;99.90;;;;;;5084057;28;20199;-68
2022/09/06 02:28:59;;;;;;;1.10;1.10;;;21.40;99.90;;;;;;5090122;28;20226;-67
2022/09/06 02:31:33;;;;;;;1.15;1.13;;;21.30;99.90;;;;;;5079001;28;20257;-68
2022/09/06 02:34:01;;;;;;;1.10;1.10;;;21.30;99.90;;;;;;5103829;28;20564;-65
2022/09/06 02:36:30;;;;;;;1.13;1.13;;;21.20;99.90;;;;;;5103225;28;20206;-68
2022/09/06 02:39:00;;;;;;;1.00;1.00;;;21.30;99.90;;;;;;5080878;28;20314;-67
2022/09/06 02:41:29;;;;;;;1.75;1.05;;;21.20;99.90;;;;;;5087291;28;20652;-67
2022/09/06 02:43:56;;;;;;;0.90;0.90;;;21.20;99.90;;;;;;5080834;28;20217;-67
2022/09/06 02:46:23;;;;;;;1.15;1.10;;;21.10;99.90;;;;;;5087547;28;20571;-67
2022/09/06 02:48:51;;;;;;;1.00;1.00;;;21.20;99.90;;;;;;5081036;28;20306;-66
2022/09/06 02:51:19;;;;;;;1.02;1.00;;;21.20;99.90;;;;;;5089127;28;20686;-67
2022/09/06 02:53:46;;;;;;;0.95;0.95;;;21.20;99.90;;;;;;5080365;28;20203;-66
2022/09/06 02:56:13;;;;;;;0.90;0.90;;;21.30;99.90;;;;;;5080460;28;20195;-67
2022/09/06 02:58:40;;;;;;;1.20;1.10;;;21.20;99.90;;;;;;5079775;28;20702;-66
2022/09/06 03:01:07;;;;;;;1.30;1.20;;;21.20;99.90;;;;;;5082223;28;20317;-67
2022/09/06 03:03:34;;;;;;;2.05;1.15;;;21.30;99.90;;;;;;5083755;28;20223;-66
2022/09/06 03:06:02;;;;;;;0.90;0.90;;;21.20;99.90;;;;;;5084335;28;20306;-66
2022/09/06 03:08:32;;;;;;;1.25;1.15;;;21.20;99.90;;;;;;5082392;28;20231;-65
2022/09/06 03:10:59;;;;;;;1.00;1.00;;;21.20;99.90;;;;;;5083829;28;20207;-66
2022/09/06 03:13:27;;;;;;;1.10;1.10;;;21.20;99.90;;;;;;5081016;28;20597;-67
2022/09/06 03:15:56;;;;;;;1.05;1.05;;;21.20;99.90;;;;;;5083696;28;20283;-64
2022/09/06 03:18:23;;;;;;;1.20;1.10;;;21.30;99.90;;;;;;5080884;28;20202;-65
2022/09/06 03:20:50;;;;;;;1.15;1.15;;;21.30;99.90;;;;;;5083579;28;20740;-67
2022/09/06 03:23:19;;;;;;;1.07;1.07;;;21.40;99.90;;;;;;5088427;28;20279;-66
2022/09/06 03:25:46;;;;;;;1.10;1.10;;;21.40;99.90;;;;;;5087450;28;20298;-66
2022/09/06 03:28:13;;;;;;;0.90;0.90;;;21.40;99.90;;;;;;5087066;28;20620;-66
2022/09/06 03:30:40;;;;;;;1.10;1.10;;;21.40;99.90;;;;;;5083951;28;20254;-65
2022/09/06 03:33:07;;;;;;;1.77;1.30;;;21.40;99.90;;;;;;5083612;28;20293;-65
2022/09/06 03:35:34;;;;;;;1.10;1.10;;;21.40;99.90;;;;;;5081806;28;20642;-66
2022/09/06 03:38:01;;;;;;;1.17;1.10;;;21.40;99.90;;;;;;5077136;28;20715;-65
2022/09/06 03:40:29;;;;;;;0.80;0.80;;;21.30;99.90;;;;;;5080790;28;20219;-66
2022/09/06 03:42:56;;;;;;;1.20;1.10;;;21.30;99.90;;;;;;5078013;28;20310;-68
2022/09/06 03:45:23;;;;;;;1.20;1.10;;;21.30;99.90;;;;;;5083204;28;20287;-65
2022/09/06 03:47:49;;;;;;;1.10;1.10;;;21.30;99.90;;;;;;5086837;28;20286;-67
2022/09/06 03:50:16;;;;;;;1.03;1.03;;;21.20;99.90;;;;;;5082649;28;20635;-67
2022/09/06 03:52:43;;;;;;;1.13;1.10;;;21.20;99.90;;;;;;5084980;28;20704;-66
2022/09/06 03:55:10;;;;;;;1.02;1.02;;;21.10;99.90;;;;;;5085473;28;20234;-67
2022/09/06 03:57:39;;;;;;;1.00;1.00;;;21.10;99.90;;;;;;5073771;28;20205;-66
2022/09/06 04:00:06;;;;;;;1.02;1.02;;;21.10;99.90;;;;;;5082983;28;20313;-65
2022/09/06 04:02:33;;;;;;;1.00;1.00;;;21.00;99.90;;;;;;5081268;28;20246;-65
2022/09/06 04:05:00;;;;;;;1.77;1.10;;;21.00;99.90;;;;;;5082857;28;20863;-66
2022/09/06 04:07:27;;;;;;;0.90;0.90;;;20.90;99.90;;;;;;5081700;28;20318;-67
2022/09/06 04:09:54;;;;;;;1.17;1.10;;;20.90;99.90;;;;;;5082731;28;20910;-66
2022/09/06 04:12:21;;;;;;;1.07;1.07;;;20.80;99.90;;;;;;5081687;28;20261;-68
2022/09/06 04:14:49;;;;;;;1.40;1.30;;;20.80;99.90;;;;;;5075749;28;20712;-66
2022/09/06 04:17:16;;;;;;;1.02;1.02;;;20.70;99.90;;;;;;5085830;28;20297;-66
2022/09/06 04:19:43;;;;;;;1.08;1.08;;;20.60;99.90;;;;;;5096896;28;20296;-66
2022/09/06 04:22:09;;;;;;;0.93;0.93;;;20.50;99.90;;;;;;5092719;28;20682;-68
2022/09/06 04:24:36;;;;;;;1.07;1.07;;;20.50;99.90;;;;;;5082917;28;20289;-66
2022/09/06 04:27:04;;;;;;;1.00;1.00;;;20.50;99.90;;;;;;5082281;28;20209;-66
2022/09/06 04:29:30;;;;;;;0.82;0.82;;;20.50;99.90;;;;;;5080602;28;20249;-65
2022/09/06 04:31:59;;;;;;;0.90;0.90;;;20.40;99.90;;;;;;5081855;28;20632;-66
2022/09/06 04:34:25;;;;;;;0.90;0.90;;;20.30;99.90;;;;;;5073962;28;20306;-67
2022/09/06 04:36:52;;;;;;;0.90;0.90;;;20.30;99.90;;;;;;5068751;28;20291;-66
2022/09/06 04:39:19;;;;;;;0.90;0.90;;;20.20;99.90;;;;;;5078041;28;20257;-66
2022/09/06 04:41:46;;;;;;;1.00;0.95;;;20.20;99.90;;;;;;5085910;28;20606;-66
2022/09/06 04:44:13;;;;;;;1.13;1.13;;;20.20;99.90;;;;;;5088602;28;20238;-66
2022/09/06 04:46:41;;;;;;;1.07;1.07;;;20.20;99.90;;;;;;5087136;28;20275;-66
2022/09/06 04:49:10;;;;;;;1.07;1.07;;;20.20;99.90;;;;;;5092981;28;20258;-67
2022/09/06 04:51:38;;;;;;;1.10;1.10;;;20.10;99.90;;;;;;5092333;28;20282;-66
2022/09/06 04:54:05;;;;;;;1.10;1.10;;;20.10;99.90;;;;;;5083512;28;20211;-67
2022/09/06 04:56:32;;;;;;;1.17;1.17;;;20.10;99.90;;;;;;5083322;28;20222;-69
2022/09/06 04:58:59;;;;;;;1.20;1.10;;;20.10;99.90;;;;;;5098479;28;20254;-67
2022/09/06 05:01:26;;;;;;;1.00;1.00;;;20.10;99.90;;;;;;5087656;28;20280;-67
2022/09/06 05:03:52;;;;;;;1.13;1.03;;;20.10;99.90;;;;;;5079852;28;20234;-68
2022/09/06 05:06:23;;;;;;;0.93;0.93;;;20.10;99.90;;;;;;5074573;28;20216;-66
2022/09/06 05:08:50;;;;;;;1.00;1.00;;;20.00;99.90;;;;;;5070211;28;20223;-66
2022/09/06 05:11:18;;;;;;;1.30;1.20;;;20.00;99.90;;;;;;5079228;28;20260;-66
2022/09/06 05:13:46;;;;;;;1.13;1.13;;;20.00;99.90;;;;;;5082077;28;20665;-66
2022/09/06 05:16:13;;;;;;;1.00;1.00;;;20.00;99.90;;;;;;5083741;28;20661;-67
2022/09/06 05:18:40;;;;;;;1.10;1.10;;;20.00;99.90;;;;;;5076915;28;20283;-66
2022/09/06 05:21:07;;;;;;;1.20;1.20;;;20.00;99.90;;;;;;5083808;28;20290;-67
2022/09/06 05:23:35;;;;;;;1.37;1.37;;;19.90;99.90;;;;;;5076605;28;20279;-67
2022/09/06 05:26:02;;;;;;;1.20;1.20;;;19.90;99.90;;;;;;5085438;28;20309;-67
2022/09/06 05:28:29;;;;;;;1.10;1.10;;;19.80;99.90;;;;;;5077022;28;20648;-66
2022/09/06 05:31:05;;;;;;;1.30;1.20;;;19.90;99.90;;;;;;5081021;28;20294;-67
2022/09/06 05:33:32;;;;;;;1.43;1.20;;;19.80;99.90;;;;;;5086275;28;20255;-67
2022/09/06 05:35:59;;;;;;;1.20;1.20;;;19.80;99.90;;;;;;5077173;28;20201;-67
2022/09/06 05:38:26;;;;;;;1.17;1.17;;;19.80;99.90;;;;;;5080165;28;20645;-65
2022/09/06 05:40:54;;;;;;;1.10;1.10;;;19.80;99.90;;;;;;5085977;28;20211;-66
2022/09/06 05:43:21;;;;;;;1.20;1.20;;;19.80;99.90;;;;;;5089975;28;20270;-67
2022/09/06 05:45:48;;;;;;;1.17;1.17;;;19.90;99.90;;;;;;5088228;28;20257;-67
2022/09/06 05:48:15;;;;;;;1.27;1.23;;;19.90;99.90;;;;;;5089680;28;20291;-65
2022/09/06 05:50:42;;;;;;;1.30;1.27;;;20.00;99.90;;;;;;5091443;28;20281;-67
2022/09/06 05:53:09;;;;;;;1.10;1.10;;;20.00;99.90;;;;;;5095182;28;20630;-65
2022/09/06 05:55:36;;;;;;;1.00;1.00;;;20.10;99.90;;;;;;5092867;28;20203;-67
2022/09/06 05:58:04;;;;;;;1.03;1.03;;;20.20;99.90;;;;;;5078319;28;20204;-67
2022/09/06 06:00:31;;;;;;;1.10;1.10;;;20.30;99.90;;;;;;5073252;28;20766;-66
2022/09/06 06:02:57;;;;;;;1.10;1.10;;;20.40;99.90;;;;;;5066622;28;20290;-66
2022/09/06 06:05:24;;;;;;;1.00;1.00;;;20.50;99.90;;;;;;5066247;28;20296;-66
2022/09/06 06:07:51;;;;;;;1.00;1.00;;;20.60;99.90;;;;;;5063231;28;20290;-66
2022/09/06 06:10:18;;;;;;;1.35;1.25;;;20.70;99.90;;;;;;5067811;28;20251;-67
2022/09/06 06:12:45;;;;;;;1.30;1.20;;;20.80;99.90;;;;;;5078624;28;20235;-66
2022/09/06 06:15:14;;;;;;;2.33;1.40;;;20.80;99.90;;;;;;5078051;28;20258;-65
2022/09/06 06:17:40;;;;;;;1.20;1.10;;;20.80;99.90;;;;;;5074114;28;20248;-65
2022/09/06 06:20:08;;;;;;;1.53;1.10;;;20.90;99.90;;;;;;5082503;28;20215;-65
2022/09/06 06:22:35;;;;;;;1.13;1.10;;;20.90;99.90;;;;;;5100508;28;21171;-66
2022/09/06 06:25:02;;;;;;;0.93;0.93;;;20.90;99.90;;;;;;5086191;28;20209;-66
2022/09/06 06:27:29;;;;;;;1.10;1.10;;;21.00;99.90;;;;;;5098138;28;20200;-68
2022/09/06 06:29:56;;;;;;;0.97;0.97;;;21.00;99.90;;;;;;5078579;28;20220;-67
2022/09/06 06:32:24;;;;;;;1.20;1.13;;;20.90;99.90;;;;;;5081684;28;20290;-66
2022/09/06 06:34:51;;;;;;;1.30;1.30;;;20.90;99.90;;;;;;5077814;28;20288;-66
2022/09/06 06:37:18;;;;;;;1.70;1.23;;;20.90;99.90;;;;;;5076302;28;20299;-67
2022/09/06 06:39:45;;;;;;;1.07;1.00;;;20.90;99.90;;;;;;5085009;28;20313;-66
2022/09/06 06:42:12;;;;;;;1.30;1.20;;;21.00;99.90;;;;;;5083527;28;20199;-67
2022/09/06 06:44:39;;;;;;;1.10;1.10;;;21.00;99.90;;;;;;5084372;28;20225;-66
2022/09/06 06:47:06;;;;;;;1.20;1.10;;;21.10;99.90;;;;;;5084619;28;20250;-65
2022/09/06 06:49:34;;;;;;;1.70;1.20;;;21.10;99.90;;;;;;5084324;28;20231;-65
2022/09/06 06:52:01;;;;;;;1.17;1.10;;;21.10;99.90;;;;;;5086840;28;20299;-65
2022/09/06 06:54:28;;;;;;;1.38;1.30;;;21.10;99.90;;;;;;5083696;28;20282;-67
2022/09/06 06:56:55;;;;;;;1.00;1.00;;;21.20;99.90;;;;;;5084688;28;20195;-66
2022/09/06 06:59:22;;;;;;;1.13;1.10;;;21.20;99.90;;;;;;5083451;28;20219;-67
2022/09/06 07:01:49;;;;;;;1.17;1.17;;;21.30;99.90;;;;;;5085626;28;20242;-67
2022/09/06 07:04:16;;;;;;;1.43;1.27;;;21.40;99.90;;;;;;5084958;28;20195;-68
2022/09/06 07:06:49;;;;;;;1.27;1.10;;;21.40;99.90;;;;;;5084151;28;20744;-67
2022/09/06 07:09:16;;;;;;;1.10;1.10;;;21.40;99.90;;;;;;5083953;28;20261;-66
2022/09/06 07:11:44;;;;;;;1.20;1.20;;;21.40;99.90;;;;;;5070168;28;20241;-67
2022/09/06 07:14:11;;;;;;;1.58;1.02;;;21.40;99.90;;;;;;5084106;28;20211;-66
2022/09/06 07:16:38;;;;;;;1.30;1.30;;;21.40;99.90;;;;;;5083884;28;20636;-68
2022/09/06 07:19:05;;;;;;;1.13;1.08;;;21.40;99.90;;;;;;5082919;28;20223;-66
2022/09/06 07:21:32;;;;;;;1.00;1.00;;;21.40;99.90;;;;;;5083248;28;20282;-66
2022/09/06 07:24:00;;;;;;;1.10;1.10;;;21.40;99.90;;;;;;5084114;28;20688;-67
2022/09/06 07:26:29;;;;;;;1.20;1.20;;;21.40;99.90;;;;;;5081827;28;20310;-66
2022/09/06 07:28:57;;;;;;;1.23;1.20;;;21.50;99.90;;;;;;5084194;28;20312;-66
2022/09/06 07:31:25;;;;;;;2.25;1.75;;;21.60;99.90;;;;;;5083541;28;20287;-67
2022/09/06 07:33:53;;;;;;;1.10;1.00;;;21.60;99.90;;;;;;5083764;28;20211;-65
2022/09/06 07:36:20;;;;;;;1.10;1.10;;;21.70;99.90;;;;;;5074994;28;20310;-68
2022/09/06 07:38:49;;;;;;;1.15;1.00;;;21.80;99.90;;;;;;5082577;28;20215;-67
2022/09/06 07:41:18;;;;;;;2.38;1.27;;;21.90;99.90;;;;;;5094349;28;20208;-67
2022/09/06 07:43:46;;;;;;;1.10;1.10;;;21.90;99.90;;;;;;5088323;28;20298;-66
2022/09/06 07:46:14;;;;;;;1.10;1.10;;;21.90;99.90;;;;;;5088483;28;20258;-67
2022/09/06 07:48:42;;;;;;;1.10;1.10;;;22.00;99.90;;;;;;5083828;28;20254;-67
2022/09/06 07:51:12;;;;;;;1.13;1.13;;;22.20;99.90;;;;;;5094849;28;20234;-66
2022/09/06 07:53:40;;;;;;;1.10;1.00;;;22.30;99.90;;;;;;5087204;28;20210;-69
2022/09/06 07:56:10;;;;;;;1.20;1.10;;;22.40;99.90;;;;;;5081928;28;20264;-67
2022/09/06 07:58:39;;;;;;;1.00;1.00;;;22.50;99.90;;;;;;5085962;28;20259;-66
2022/09/06 08:01:26;;;;;;;1.00;1.00;;;22.60;99.90;;;;;;5080526;28;20298;-65
2022/09/06 08:03:53;;;;;;;4.70;1.20;;;22.70;99.90;;;;;;5078342;28;20197;-67
2022/09/06 08:06:21;;;;;;;1.27;1.10;;;22.70;99.90;;;;;;5085728;28;20249;-67
2022/09/06 08:08:48;;;;;;;1.17;1.17;;;22.80;99.90;;;;;;5094177;28;20257;-66
2022/09/06 08:11:15;;;;;;;1.25;1.15;;;22.80;99.90;;;;;;5085964;28;20195;-66
2022/09/06 08:13:43;;;;;;;1.35;1.20;;;22.70;99.90;;;;;;5070411;28;20203;-66
2022/09/06 08:16:12;;;;;;;1.02;1.02;;;22.90;99.90;;;;;;5082711;28;20198;-66
2022/09/06 08:18:39;;;;;;;1.10;1.10;;;23.00;99.90;;;;;;5083644;28;20248;-68
2022/09/06 08:21:08;;;;;;;1.27;1.20;;;23.10;99.90;;;;;;5084149;28;20286;-66
2022/09/06 08:23:34;;;;;;;1.30;1.20;;;23.10;99.90;;;;;;5082862;28;20290;-67
2022/09/06 08:26:01;;;;;;;1.50;1.20;;;23.20;99.90;;;;;;5084318;28;20246;-67
2022/09/06 08:28:28;;;;;;;1.40;1.30;;;23.20;99.90;;;;;;5079796;28;20672;-67
2022/09/06 08:31:05;;;;;;;1.33;1.20;;;23.30;99.90;;;;;;5083588;28;20247;-67
2022/09/06 08:33:32;;;;;;;1.40;1.30;;;23.50;99.90;;;;;;5076606;28;20207;-66
2022/09/06 08:35:59;;;;;;;1.10;1.10;;;23.60;99.90;;;;;;5083495;28;20743;-66
2022/09/06 08:38:26;;;;;;;1.45;1.30;;;23.70;99.90;;;;;;5078341;28;20202;-66
2022/09/06 08:40:55;;;;;;;1.08;1.00;;;23.90;99.90;;;;;;5082891;28;20239;-67
2022/09/06 08:43:23;;;;;;;1.08;1.08;;;24.00;99.90;;;;;;5082289;28;20209;-66
2022/09/06 08:45:55;;;;;;;0.93;0.93;;;24.20;99.90;;;;;;5086732;28;20677;-68
2022/09/06 08:48:27;;;;;;;1.73;1.40;;;24.50;99.90;;;;;;5085931;28;20207;-67
2022/09/06 08:51:05;;;;;;;1.40;1.30;;;24.60;99.90;;;;;;5088676;28;20289;-66
2022/09/06 08:53:34;;;;;;;1.50;1.40;;;24.70;99.90;;;;;;5084981;28;20230;-66
2022/09/06 08:56:12;;;;;;;1.30;1.20;;;24.90;99.90;;;;;;5083895;28;20291;-67
2022/09/06 08:58:59;;;;;;;1.45;1.23;;;25.10;99.90;;;;;;5089852;28;20680;-67
2022/09/06 09:01:33;;;;;;;2.05;1.42;;;25.30;99.90;;;;;;5083585;28;20592;-67
2022/09/06 09:04:06;;;;;;;1.17;1.17;;;25.30;99.90;;;;;;5091476;28;20282;-68
2022/09/06 09:06:33;;;;;;;1.10;1.10;;;25.40;99.90;;;;;;5088393;28;20227;-67
2022/09/06 09:09:04;;;;;;;1.45;1.35;;;25.50;99.90;;;;;;5097334;28;20226;-68
2022/09/06 09:11:32;;;;;;;1.40;1.30;;;25.50;99.90;;;;;;5086146;28;20205;-66
2022/09/06 09:14:04;;;;;;;1.30;1.20;;;25.50;99.90;;;;;;5086416;28;20205;-66
2022/09/06 09:16:31;;;;;;;2.65;1.35;;;25.40;99.90;;;;;;5083855;28;20279;-68
2022/09/06 09:19:02;;;;;;;1.50;1.40;;;25.40;99.90;;;;;;5086790;28;20757;-65
2022/09/06 09:21:32;;;;;;;2.47;1.40;;;25.20;99.90;;;;;;5085905;28;20650;-68
2022/09/06 09:24:03;;;;;;;1.10;1.10;;;25.20;99.90;;;;;;5086544;28;20298;-69
2022/09/06 09:26:38;;;;;;;1.40;1.30;;;25.20;99.90;;;;;;5086435;28;20243;-66
2022/09/06 09:29:07;;;;;;;1.48;1.38;;;25.20;99.90;;;;;;5089111;28;20221;-66
2022/09/06 09:31:36;;;;;;;1.30;1.20;;;25.20;99.90;;;;;;5085051;28;20246;-68
2022/09/06 09:34:05;;;;;;;1.40;1.30;;;25.30;99.90;;;;;;5081533;28;20200;-66
2022/09/06 09:36:33;;;;;;;2.13;1.58;;;25.30;99.90;;;;;;5085497;28;20725;-68
2022/09/06 09:39:00;;;;;;;1.40;1.25;;;25.40;99.90;;;;;;5077859;28;20779;-69
2022/09/06 09:41:31;;;;;;;1.65;1.52;;;25.50;99.90;;;;;;5082650;28;20233;-66
2022/09/06 09:44:01;;;;;;;3.03;1.60;;;25.50;99.90;;;;;;5091307;28;20816;-68
2022/09/06 09:46:31;;;;;;;1.83;1.52;;;25.60;99.90;;;;;;5092614;28;20595;-70
2022/09/06 09:49:06;;;;;;;1.40;1.30;;;25.60;99.90;;;;;;5082744;28;20652;-68
2022/09/06 09:51:37;;;;;;;1.98;1.33;;;25.70;99.90;;;;;;5062312;22;20713;-61
2022/09/06 09:54:06;;;;;;;1.95;1.55;;;25.60;99.90;;;;;;5039286;28;20200;-62
2022/09/06 09:56:44;;;;;;;1.25;1.20;;;25.60;99.90;;;;;;5042311;28;20197;-60
2022/09/06 09:59:26;;;;;;;1.70;1.45;;;25.60;99.90;;;;;;5040794;28;20207;-60
2022/09/06 10:01:56;;;;;;;1.45;1.35;;;25.80;99.90;;;;;;5033089;28;20226;-60
2022/09/06 10:04:31;;;;;;;1.73;1.50;;;25.90;99.90;;;;;;5042544;28;20205;-60
2022/09/06 10:07:12;;;;;;;1.40;1.30;;;26.00;99.90;;;;;;5046922;28;20593;-61
2022/09/06 10:09:41;;;;;;;1.00;1.00;;;26.30;99.90;;;;;;5049791;28;20234;-60
2022/09/06 10:12:08;;;;;;;1.23;1.13;;;26.60;99.90;;;;;;5054308;28;20287;-61
2022/09/06 10:14:42;;;;;;;1.60;1.50;;;26.90;99.90;;;;;;5044660;28;20203;-61
2022/09/06 10:17:18;;;;;;;1.48;1.38;;;27.20;99.90;;;;;;5045144;28;20246;-60
2022/09/06 10:19:47;;;;;;;1.30;1.25;;;27.40;99.90;;;;;;5036108;28;20210;-61
2022/09/06 10:22:26;;;;;;;1.50;1.40;;;27.70;99.90;;;;;;5044901;28;20227;-61
2022/09/06 10:25:32;;;;;;;1.48;1.35;;;27.90;99.90;;;;;;5038901;28;20291;-60
2022/09/06 10:28:35;;;;;;;1.60;1.50;;;28.10;99.90;;;;;;5038325;28;20725;-61
2022/09/06 10:31:13;;;;;;;2.35;1.52;;;28.40;99.90;;;;;;5033805;28;20223;-61
2022/09/06 10:33:50;;;;;;;1.00;1.00;;;28.50;99.90;;;;;;5045231;28;20196;-61
2022/09/06 10:36:22;;;;;;;1.42;1.33;;;28.50;99.90;;;;;;5043233;28;20211;-61
2022/09/06 10:38:54;;;;;;;2.10;1.50;;;28.50;99.90;;;;;;5045556;28;20204;-61
2022/09/06 10:41:37;;;;;;;0.90;0.90;;;28.50;99.90;;;;;;5045991;28;20230;-62
2022/09/06 10:44:13;;;;;;;1.38;1.27;;;28.60;99.90;;;;;;5044998;28;20522;-62
2022/09/06 10:46:44;;;;;;;1.30;1.20;;;28.70;99.90;;;;;;5040905;28;20220;-62
2022/09/06 10:49:15;;;;;;;1.30;1.20;;;28.70;99.90;;;;;;5046930;28;20212;-61
2022/09/06 10:51:48;;;;;;;1.23;1.10;;;28.80;99.90;;;;;;5037709;28;20233;-62
2022/09/06 10:54:19;;;;;;;1.65;1.05;;;29.00;99.90;;;;;;5047820;28;20246;-63
2022/09/06 10:56:51;;;;;;;1.20;1.10;;;28.90;99.90;;;;;;5037296;28;20203;-61
2022/09/06 10:59:22;;;;;;;1.10;1.00;;;29.10;99.90;;;;;;5033965;28;20628;-63
2022/09/06 11:01:59;;;;;;;0.80;0.80;;;29.30;99.90;;;;;;5044470;28;20279;-60
2022/09/06 11:04:30;;;;;;;1.13;1.08;;;29.50;99.90;;;;;;5042863;28;20212;-61
2022/09/06 11:07:02;;;;;;;1.05;1.05;;;29.50;99.90;;;;;;5050585;28;20238;-61
2022/09/06 11:09:34;;;;;;;0.90;0.90;;;29.70;99.90;;;;;;5044701;28;20204;-61
2022/09/06 11:12:07;;;;;;;1.00;1.00;;;29.50;99.90;;;;;;5058037;28;20223;-61
2022/09/06 11:14:36;;;;;;;0.93;0.93;;;29.40;99.90;;;;;;5066924;28;20191;-61
2022/09/06 11:17:08;;;;;;;1.25;1.05;;;29.50;99.90;;;;;;5063658;28;20267;-61
2022/09/06 11:19:43;;;;;;;1.13;0.90;;;29.50;99.90;;;;;;5052372;28;20287;-63
2022/09/06 11:22:30;;;;;;;1.27;1.10;;;29.50;99.90;;;;;;5046158;28;20208;-61
2022/09/06 11:25:26;;;;;;;0.90;0.90;;;29.60;99.90;;;;;;5036246;28;20204;-63
2022/09/06 11:27:55;;;;;;;0.73;0.73;;;29.80;99.90;;;;;;5044281;28;20317;-62
2022/09/06 11:30:24;;;;;;;0.80;0.80;;;29.90;99.90;;;;;;5043400;28;20706;-62
2022/09/06 11:33:03;;;;;;;0.70;0.70;;;29.90;99.90;;;;;;5040630;28;20200;-62
2022/09/06 11:35:32;;;;;;;0.95;0.93;;;30.00;99.90;;;;;;5046171;28;20210;-62
2022/09/06 11:38:03;;;;;;;0.80;0.80;;;30.00;99.90;;;;;;5040000;28;20211;-62
2022/09/06 11:40:37;;;;;;;0.90;0.90;;;29.90;99.90;;;;;;5047284;28;20282;-61
2022/09/06 11:43:17;;;;;;;0.95;0.95;;;30.10;99.90;;;;;;5039968;28;20204;-61
2022/09/06 11:45:48;;;;;;;0.68;0.68;;;30.00;99.90;;;;;;5032960;28;20300;-62
2022/09/06 11:48:50;;;;;;;0.88;0.88;;;30.00;99.90;;;;;;5039460;28;20220;-62
2022/09/06 11:51:36;;;;;;;1.00;1.00;;;29.90;99.90;;;;;;5033983;28;20242;-62
2022/09/06 11:54:23;;;;;;;0.80;0.80;;;29.90;99.90;;;;;;5035995;28;20211;-62
2022/09/06 11:56:57;;;;;;;0.88;0.88;;;29.80;99.90;;;;;;5042429;28;20204;-60
2022/09/06 11:59:35;;;;;;;1.55;0.90;;;29.60;99.90;;;;;;5035207;28;20204;-62
2022/09/06 12:02:05;;;;;;;0.98;0.98;;;29.50;99.90;;;;;;5043013;28;20228;-62
2022/09/06 12:05:10;;;;;;;1.38;0.98;;;29.40;99.90;;;;;;5039728;28;20227;-61
2022/09/06 12:07:39;;;;;;;1.00;1.00;;;29.10;99.90;;;;;;5041899;28;20229;-61
2022/09/06 12:10:39;;;;;;;0.88;0.88;;;29.00;99.90;;;;;;5043695;28;20702;-61
2022/09/06 12:13:39;;;;;;;1.10;1.00;;;29.10;99.90;;;;;;5043990;28;20207;-62
2022/09/06 12:16:09;;;;;;;1.10;1.10;;;29.20;99.90;;;;;;5035377;28;20266;-62
2022/09/06 12:18:55;;;;;;;1.05;0.90;;;29.40;99.90;;;;;;5047288;28;20204;-62
2022/09/06 12:21:40;;;;;;;0.68;0.68;;;29.60;99.90;;;;;;5028916;28;20307;-62
2022/09/06 12:24:08;;;;;;;1.00;1.00;;;29.70;99.90;;;;;;5043665;28;20589;-63
2022/09/06 12:26:47;;;;;;;1.02;0.90;;;29.70;99.90;;;;;;5045856;28;20218;-61
2022/09/06 12:29:15;;;;;;;1.23;1.10;;;29.60;99.90;;;;;;5046918;28;20223;-62
2022/09/06 12:31:45;;;;;;;1.00;1.00;;;29.40;99.90;;;;;;5046883;28;20709;-61
2022/09/06 12:34:18;;;;;;;1.20;1.00;;;29.20;99.90;;;;;;5045454;28;20206;-60
2022/09/06 12:36:52;;;;;;;1.10;1.00;;;29.10;99.90;;;;;;5034932;28;20206;-60
2022/09/06 12:39:21;;;;;;;0.85;0.82;;;29.10;99.90;;;;;;5045627;28;20240;-62
2022/09/06 12:41:50;;;;;;;1.15;1.00;;;29.20;99.90;;;;;;5029524;28;20255;-62
2022/09/06 12:44:28;;;;;;;0.60;0.60;;;29.40;99.90;;;;;;5025201;28;20205;-62
2022/09/06 12:46:55;;;;;;;1.58;0.70;;;29.50;99.90;;;;;;5023259;28;20710;-62
2022/09/06 12:49:23;;;;;;;0.77;0.77;;;29.50;99.90;;;;;;5039302;28;20204;-62
2022/09/06 12:51:50;;;;;;;0.65;0.65;;;29.60;99.90;;;;;;5043260;28;20236;-62
2022/09/06 12:54:20;;;;;;;0.60;0.60;;;29.70;99.90;;;;;;5045676;28;20232;-63
2022/09/06 12:56:48;;;;;;;0.75;0.70;;;29.70;99.90;;;;;;5043174;28;20349;-61
2022/09/06 12:59:18;;;;;;;0.80;0.80;;;29.60;99.90;;;;;;5041823;28;20326;-62
2022/09/06 13:01:50;;;;;;;0.85;0.85;;;29.70;99.90;;;;;;5039272;28;20280;-62
2022/09/06 13:04:28;;;;;;;0.63;0.63;;;29.80;99.90;;;;;;5037470;28;20208;-61
2022/09/06 13:06:57;;;;;;;0.98;0.68;;;29.90;99.90;;;;;;5033599;28;20353;-62